Time;durP1;ratioP1;P1;durP2;ratioP2;P2;SDS_P1;SDS_P2;PMS_P1;PMS_P2;Temp;Humidity;BMP_temperature;BMP_pressure;BME280_temperature;BME280_humidity;BME280_pressure;Samples;Min_cycle;Max_cycle;Signal;HPM_P1;HPM_P2
2022/03/20 00:01:24;;;;;;;0.30;0.20;;;3.70;99.90;;;;;;4955148;29;20516;-83
2022/03/20 00:03:51;;;;;;;0.70;0.70;;;3.70;99.90;;;;;;4955263;29;20542;-82
2022/03/20 00:06:18;;;;;;;0.60;0.60;;;3.70;99.90;;;;;;4954920;29;20966;-82
2022/03/20 00:08:45;;;;;;;0.40;0.40;;;3.60;99.90;;;;;;4955058;29;20489;-82
2022/03/20 00:11:13;;;;;;;1.00;0.70;;;3.60;99.90;;;;;;4955012;29;20458;-83
2022/03/20 00:13:39;;;;;;;0.50;0.50;;;3.60;99.90;;;;;;4954807;29;20450;-83
2022/03/20 00:16:06;;;;;;;3.40;1.17;;;3.60;99.90;;;;;;4955073;29;20454;-83
2022/03/20 00:18:33;;;;;;;1.50;1.20;;;3.60;99.90;;;;;;4955055;29;20470;-83
2022/03/20 00:21:01;;;;;;;1.93;0.77;;;3.60;99.90;;;;;;4955000;29;20864;-83
2022/03/20 00:23:28;;;;;;;0.60;0.30;;;3.60;99.90;;;;;;4955107;29;20454;-83
2022/03/20 00:25:57;;;;;;;0.50;0.40;;;3.60;99.90;;;;;;4955011;29;20451;-83
2022/03/20 00:28:26;;;;;;;0.53;0.43;;;3.60;99.90;;;;;;4954894;29;20481;-83
2022/03/20 00:30:55;;;;;;;1.00;1.00;;;3.50;99.90;;;;;;4954741;29;20453;-83
2022/03/20 00:33:22;;;;;;;0.50;0.50;;;3.50;99.90;;;;;;4955029;29;20461;-83
2022/03/20 00:35:48;;;;;;;0.30;0.30;;;3.50;99.90;;;;;;4955009;29;20435;-83
2022/03/20 00:38:15;;;;;;;0.40;0.40;;;3.50;99.90;;;;;;4954871;29;20470;-82
2022/03/20 00:40:43;;;;;;;1.50;1.40;;;3.50;99.90;;;;;;4954520;29;20485;-82
2022/03/20 00:43:10;;;;;;;0.50;0.50;;;3.50;99.90;;;;;;4954880;29;20546;-82
2022/03/20 00:45:39;;;;;;;1.43;0.40;;;3.40;99.90;;;;;;4954845;29;20450;-82
2022/03/20 00:48:07;;;;;;;0.30;0.30;;;3.40;99.90;;;;;;4954209;29;20838;-82
2022/03/20 00:50:35;;;;;;;0.90;0.57;;;3.40;99.90;;;;;;4954815;29;20467;-82
2022/03/20 00:53:02;;;;;;;0.63;0.53;;;3.30;99.90;;;;;;4954466;29;20462;-82
2022/03/20 00:55:29;;;;;;;2.83;0.83;;;3.30;99.90;;;;;;4954493;29;20450;-82
2022/03/20 00:57:56;;;;;;;0.30;0.30;;;3.30;99.90;;;;;;4954414;29;20990;-82
2022/03/20 01:00:23;;;;;;;0.37;0.37;;;3.30;99.90;;;;;;4954619;29;20496;-82
2022/03/20 01:02:51;;;;;;;0.70;0.50;;;3.30;99.90;;;;;;4954400;29;20458;-82
2022/03/20 01:05:18;;;;;;;1.33;1.33;;;3.30;99.90;;;;;;4954573;29;20836;-82
2022/03/20 01:07:44;;;;;;;0.40;0.40;;;3.20;99.90;;;;;;4954579;28;20442;-82
2022/03/20 01:10:12;;;;;;;0.47;0.47;;;3.20;99.90;;;;;;4958096;29;20454;-82
2022/03/20 01:12:40;;;;;;;0.50;0.40;;;3.20;99.90;;;;;;4958088;29;20458;-82
2022/03/20 01:15:10;;;;;;;0.30;0.30;;;3.20;99.90;;;;;;4957991;29;20505;-82
2022/03/20 01:17:37;;;;;;;3.10;2.00;;;3.20;99.90;;;;;;4957827;29;20450;-82
2022/03/20 01:20:08;;;;;;;0.80;0.80;;;3.20;99.90;;;;;;4957887;29;20493;-82
2022/03/20 01:22:36;;;;;;;1.70;1.30;;;3.30;99.90;;;;;;4957894;29;20446;-82
2022/03/20 01:25:04;;;;;;;0.60;0.50;;;3.20;99.90;;;;;;4958536;29;20465;-82
2022/03/20 01:27:31;;;;;;;0.87;0.50;;;3.20;99.90;;;;;;4957776;29;20446;-81
2022/03/20 01:29:58;;;;;;;0.80;0.40;;;3.20;99.90;;;;;;4957763;29;20490;-81
2022/03/20 01:32:26;;;;;;;1.07;1.03;;;3.20;99.90;;;;;;4957725;29;20458;-82
2022/03/20 01:34:53;;;;;;;0.40;0.37;;;3.20;99.90;;;;;;4957637;29;20454;-81
2022/03/20 01:37:21;;;;;;;0.70;0.70;;;3.10;99.90;;;;;;4957326;29;20838;-81
2022/03/20 01:39:48;;;;;;;0.70;0.70;;;3.10;99.90;;;;;;4957453;29;20478;-81
2022/03/20 01:42:14;;;;;;;1.47;0.70;;;3.10;99.90;;;;;;4958327;29;20465;-81
2022/03/20 01:44:41;;;;;;;0.97;0.97;;;3.10;99.90;;;;;;4957217;29;20946;-81
2022/03/20 01:47:09;;;;;;;0.43;0.43;;;3.10;99.90;;;;;;4957324;29;20840;-81
2022/03/20 01:49:36;;;;;;;0.30;0.30;;;3.10;99.90;;;;;;4956924;29;20482;-81
2022/03/20 01:52:14;;;;;;;0.97;0.97;;;3.10;99.90;;;;;;4957106;29;20442;-81
2022/03/20 01:54:45;;;;;;;0.43;0.43;;;3.10;99.90;;;;;;4957058;29;20789;-81
2022/03/20 01:57:16;;;;;;;0.57;0.33;;;3.10;99.90;;;;;;4957027;29;20445;-81
2022/03/20 01:59:43;;;;;;;1.10;1.00;;;3.10;99.90;;;;;;4957315;29;20470;-81
2022/03/20 02:02:10;;;;;;;0.87;0.87;;;3.00;99.90;;;;;;4957117;29;20493;-81
2022/03/20 02:04:38;;;;;;;2.37;1.17;;;3.00;99.90;;;;;;4957019;29;20922;-81
2022/03/20 02:07:06;;;;;;;1.27;1.20;;;3.10;99.90;;;;;;4957123;29;20477;-83
2022/03/20 02:09:35;;;;;;;0.93;0.93;;;3.10;99.90;;;;;;4957046;29;20521;-83
2022/03/20 02:12:03;;;;;;;0.83;0.73;;;3.10;99.90;;;;;;4956957;29;20454;-82
2022/03/20 02:14:32;;;;;;;1.33;1.33;;;3.10;99.90;;;;;;4956981;29;20465;-82
2022/03/20 02:16:59;;;;;;;0.40;0.30;;;3.20;99.90;;;;;;4956940;29;20454;-82
2022/03/20 02:19:26;;;;;;;1.90;1.20;;;3.20;99.90;;;;;;4956569;28;20478;-83
2022/03/20 02:21:55;;;;;;;0.60;0.60;;;3.20;99.90;;;;;;4956151;29;20488;-83
2022/03/20 02:24:38;;;;;;;0.73;0.73;;;3.20;99.90;;;;;;4956797;29;20533;-83
2022/03/20 02:27:08;;;;;;;0.30;0.30;;;3.20;99.90;;;;;;4956794;29;20599;-82
2022/03/20 02:29:34;;;;;;;0.50;0.50;;;3.20;99.90;;;;;;4956742;29;20466;-83
2022/03/20 02:32:05;;;;;;;0.60;0.60;;;3.30;99.90;;;;;;4956347;29;20888;-82
2022/03/20 02:34:32;;;;;;;0.57;0.57;;;3.30;99.90;;;;;;4956283;29;20947;-81
2022/03/20 02:37:01;;;;;;;0.37;0.30;;;3.30;99.90;;;;;;4956494;29;20461;-83
2022/03/20 02:39:29;;;;;;;0.47;0.47;;;3.30;99.90;;;;;;4956242;29;20458;-83
2022/03/20 02:41:57;;;;;;;1.27;0.57;;;3.30;99.90;;;;;;4956099;29;20489;-83
2022/03/20 02:44:49;;;;;;;0.83;0.83;;;3.30;99.90;;;;;;4956406;29;20458;-81
2022/03/20 02:47:20;;;;;;;0.30;0.30;;;3.30;99.90;;;;;;4956127;29;20798;-83
2022/03/20 02:49:50;;;;;;;1.07;1.07;;;3.30;99.90;;;;;;4955939;29;20581;-81
2022/03/20 02:52:18;;;;;;;0.37;0.37;;;3.30;99.90;;;;;;4955955;29;20961;-81
2022/03/20 02:54:45;;;;;;;0.80;0.50;;;3.30;99.90;;;;;;4956161;29;20439;-81
2022/03/20 02:57:12;;;;;;;0.47;0.47;;;3.30;99.90;;;;;;4955880;29;20460;-81
2022/03/20 02:59:39;;;;;;;0.50;0.50;;;3.30;99.90;;;;;;4955766;29;20997;-81
2022/03/20 03:02:09;;;;;;;0.40;0.40;;;3.30;99.90;;;;;;4955773;29;20482;-81
2022/03/20 03:04:37;;;;;;;0.30;0.30;;;3.40;99.90;;;;;;4956112;29;20526;-81
2022/03/20 03:07:04;;;;;;;0.30;0.30;;;3.40;99.90;;;;;;4955940;29;20439;-81
2022/03/20 03:12:17;;;;;;;0.53;0.53;;;3.30;99.90;;;;;;4956024;29;20418;-81
2022/03/20 03:17:31;;;;;;;1.03;1.03;;;3.30;99.90;;;;;;4942971;29;20444;-81
2022/03/20 03:19:58;;;;;;;0.40;0.40;;;3.30;99.90;;;;;;4955623;29;20474;-81
2022/03/20 03:22:27;;;;;;;1.27;1.27;;;3.30;99.90;;;;;;4955668;29;20486;-81
2022/03/20 03:24:55;;;;;;;1.37;1.37;;;3.40;99.90;;;;;;4955728;29;20454;-81
2022/03/20 03:27:22;;;;;;;0.43;0.43;;;3.40;99.90;;;;;;4955679;29;20477;-81
2022/03/20 03:29:49;;;;;;;1.93;0.57;;;3.50;99.90;;;;;;4955562;29;20473;-81
2022/03/20 03:32:16;;;;;;;0.80;0.80;;;3.50;99.90;;;;;;4954538;28;20817;-81
2022/03/20 03:37:27;;;;;;;0.40;0.40;;;3.40;99.90;;;;;;4955642;29;20414;-82
2022/03/20 03:39:55;;;;;;;1.63;0.63;;;3.40;99.90;;;;;;4955426;29;20481;-82
2022/03/20 03:42:22;;;;;;;0.57;0.40;;;3.40;99.90;;;;;;4955071;29;20478;-81
2022/03/20 03:44:50;;;;;;;0.57;0.57;;;3.40;99.90;;;;;;4955411;29;20465;-81
2022/03/20 03:47:17;;;;;;;0.43;0.43;;;3.40;99.90;;;;;;4955399;29;20451;-82
2022/03/20 03:49:44;;;;;;;0.30;0.30;;;3.50;99.90;;;;;;4954875;29;20493;-81
2022/03/20 03:52:11;;;;;;;5.10;2.43;;;3.50;99.90;;;;;;4955370;29;20454;-81
2022/03/20 03:54:38;;;;;;;0.70;0.70;;;3.40;99.90;;;;;;4955013;29;21013;-82
2022/03/20 03:57:06;;;;;;;2.10;0.40;;;3.30;99.90;;;;;;4955000;29;20458;-82
2022/03/20 03:59:33;;;;;;;0.30;0.30;;;3.30;99.90;;;;;;4955090;29;20465;-82
2022/03/20 04:02:00;;;;;;;0.67;0.67;;;3.40;99.90;;;;;;4954911;29;20493;-83
2022/03/20 04:04:27;;;;;;;3.10;0.63;;;3.30;99.90;;;;;;4954989;29;21013;-82
2022/03/20 04:06:55;;;;;;;0.87;0.53;;;3.30;99.90;;;;;;4954929;29;20946;-81
2022/03/20 04:09:22;;;;;;;0.80;0.80;;;3.30;99.90;;;;;;4955170;29;20482;-83
2022/03/20 04:11:49;;;;;;;0.30;0.30;;;3.30;99.90;;;;;;4955216;29;20442;-81
2022/03/20 04:14:17;;;;;;;0.57;0.57;;;3.30;99.90;;;;;;4955186;29;20454;-80
2022/03/20 04:16:44;;;;;;;0.73;0.50;;;3.40;99.90;;;;;;4955179;29;20451;-82
2022/03/20 04:19:11;;;;;;;1.83;0.50;;;3.40;99.90;;;;;;4955022;29;20474;-82
2022/03/20 04:21:38;;;;;;;1.43;0.70;;;3.50;99.90;;;;;;4954995;29;20576;-81
2022/03/20 04:24:07;;;;;;;0.60;0.60;;;3.50;99.90;;;;;;4955088;29;20454;-81
2022/03/20 04:26:35;;;;;;;0.37;0.37;;;3.60;99.90;;;;;;4954775;29;20454;-82
2022/03/20 04:29:02;;;;;;;0.57;0.50;;;3.60;99.90;;;;;;4954702;29;21119;-82
2022/03/20 04:31:31;;;;;;;0.90;0.77;;;3.60;99.90;;;;;;4954749;29;20442;-82
2022/03/20 04:33:57;;;;;;;0.50;0.50;;;3.60;99.90;;;;;;4954978;29;20465;-82
2022/03/20 04:36:27;;;;;;;0.87;0.87;;;3.60;99.90;;;;;;4954967;29;20461;-82
2022/03/20 04:38:56;;;;;;;0.67;0.50;;;3.60;99.90;;;;;;4954533;29;20516;-82
2022/03/20 04:41:23;;;;;;;0.40;0.40;;;3.70;99.90;;;;;;4954529;29;20481;-82
2022/03/20 04:43:51;;;;;;;0.70;0.70;;;3.70;99.90;;;;;;4956212;28;20979;-82
2022/03/20 04:46:18;;;;;;;0.40;0.40;;;3.80;99.90;;;;;;4958259;29;20439;-82
2022/03/20 04:59:47;;;;;;;0.77;0.70;;;3.90;99.90;;;;;;4958106;29;20533;-82
2022/03/20 05:02:14;;;;;;;0.50;0.50;;;3.90;99.90;;;;;;4958224;29;20497;-82
2022/03/20 05:04:42;;;;;;;0.30;0.30;;;3.90;99.90;;;;;;4958280;29;20449;-82
2022/03/20 05:07:09;;;;;;;0.50;0.50;;;3.80;99.90;;;;;;4958188;29;20477;-82
2022/03/20 05:15:08;;;;;;;1.03;0.60;;;3.80;99.90;;;;;;4957946;29;20414;-82
2022/03/20 05:17:35;;;;;;;0.70;0.70;;;3.80;99.90;;;;;;4957595;29;20454;-82
2022/03/20 05:20:04;;;;;;;3.33;0.73;;;3.80;99.90;;;;;;4957974;29;20458;-82
2022/03/20 05:22:31;;;;;;;2.93;1.03;;;3.70;99.90;;;;;;4957822;29;20529;-82
2022/03/20 05:24:58;;;;;;;1.17;1.07;;;3.70;99.90;;;;;;4957604;29;20942;-82
2022/03/20 05:27:24;;;;;;;0.50;0.50;;;3.80;99.90;;;;;;4958124;29;20438;-82
2022/03/20 05:29:51;;;;;;;0.50;0.50;;;3.80;99.90;;;;;;4957561;29;20463;-82
2022/03/20 05:32:18;;;;;;;0.80;0.80;;;3.70;99.90;;;;;;4957764;29;20457;-82
2022/03/20 05:34:45;;;;;;;0.60;0.60;;;3.80;99.90;;;;;;4957693;29;20454;-82
2022/03/20 05:37:13;;;;;;;3.00;1.40;;;3.80;99.90;;;;;;4957655;29;20454;-82
2022/03/20 05:39:40;;;;;;;0.80;0.63;;;3.90;99.90;;;;;;4957272;29;20473;-82
2022/03/20 05:42:07;;;;;;;1.23;1.23;;;3.90;99.90;;;;;;4957477;29;20486;-82
2022/03/20 05:44:34;;;;;;;0.43;0.43;;;3.80;99.90;;;;;;4957538;29;20447;-82
2022/03/20 05:47:02;;;;;;;0.57;0.57;;;3.90;99.90;;;;;;4957607;29;20862;-82
2022/03/20 05:49:29;;;;;;;1.00;0.80;;;3.90;99.90;;;;;;4956929;29;20501;-82
2022/03/20 05:51:57;;;;;;;1.40;0.50;;;4.00;99.90;;;;;;4957095;29;20997;-82
2022/03/20 05:54:25;;;;;;;1.33;1.23;;;4.00;99.90;;;;;;4956711;28;20458;-82
2022/03/20 05:59:36;;;;;;;0.67;0.67;;;4.10;99.90;;;;;;4957158;29;20521;-82
2022/03/20 06:02:04;;;;;;;1.30;1.20;;;4.20;99.90;;;;;;4957118;29;20576;-82
2022/03/20 06:04:33;;;;;;;0.37;0.37;;;4.10;99.90;;;;;;4957129;29;20529;-82
2022/03/20 06:07:00;;;;;;;0.53;0.53;;;4.20;99.90;;;;;;4957088;29;20469;-82
2022/03/20 06:09:28;;;;;;;1.20;1.20;;;4.20;99.90;;;;;;4957387;29;20482;-82
2022/03/20 06:11:56;;;;;;;0.87;0.87;;;4.20;99.90;;;;;;4957031;29;20458;-82
2022/03/20 06:14:23;;;;;;;1.63;1.53;;;4.20;99.90;;;;;;4956958;29;20450;-82
2022/03/20 06:16:50;;;;;;;0.83;0.83;;;4.10;99.90;;;;;;4956894;29;20477;-82
2022/03/20 06:19:17;;;;;;;1.47;1.23;;;4.20;99.90;;;;;;4956847;29;20466;-82
2022/03/20 06:21:46;;;;;;;0.30;0.30;;;4.20;99.90;;;;;;4957208;29;20490;-82
2022/03/20 06:24:12;;;;;;;0.90;0.50;;;4.20;99.90;;;;;;4956781;29;20450;-82
2022/03/20 06:26:41;;;;;;;1.80;1.40;;;4.30;99.90;;;;;;4956727;29;20458;-82
2022/03/20 06:29:08;;;;;;;0.43;0.43;;;4.40;99.90;;;;;;4956628;29;20497;-82
2022/03/20 06:31:35;;;;;;;0.50;0.50;;;4.40;99.90;;;;;;4956674;29;20454;-82
2022/03/20 06:34:04;;;;;;;0.60;0.60;;;4.50;99.90;;;;;;4956953;29;20812;-82
2022/03/20 06:36:31;;;;;;;0.30;0.30;;;4.60;99.90;;;;;;4956338;29;20447;-82
2022/03/20 06:38:58;;;;;;;2.60;1.00;;;4.70;99.90;;;;;;4957483;29;20477;-82
2022/03/20 06:41:25;;;;;;;0.50;0.47;;;4.80;99.90;;;;;;4957247;29;20443;-82
2022/03/20 06:43:54;;;;;;;0.83;0.83;;;5.10;99.90;;;;;;4956354;29;20968;-82
2022/03/20 06:46:21;;;;;;;1.57;1.47;;;5.30;99.90;;;;;;4956450;29;20466;-82
2022/03/20 06:48:48;;;;;;;0.90;0.70;;;5.40;99.90;;;;;;4955952;29;20493;-82
2022/03/20 06:51:16;;;;;;;0.50;0.50;;;5.70;99.90;;;;;;4956073;29;20926;-82
2022/03/20 06:53:43;;;;;;;0.70;0.70;;;5.80;99.90;;;;;;4956330;29;20461;-83
2022/03/20 06:56:09;;;;;;;0.50;0.50;;;5.90;99.90;;;;;;4955927;29;20950;-82
2022/03/20 06:58:36;;;;;;;0.97;0.97;;;5.90;99.90;;;;;;4955994;29;20883;-82
2022/03/20 07:01:04;;;;;;;1.63;1.60;;;5.90;99.90;;;;;;4956136;29;20523;-83
2022/03/20 07:03:31;;;;;;;1.17;0.70;;;6.00;99.90;;;;;;4955663;29;21001;-83
2022/03/20 07:05:59;;;;;;;0.60;0.60;;;6.00;99.90;;;;;;4955854;28;20454;-83
2022/03/20 07:08:25;;;;;;;1.17;1.17;;;6.20;99.90;;;;;;4955618;29;20982;-82
2022/03/20 07:10:52;;;;;;;0.40;0.30;;;6.40;99.90;;;;;;4955963;29;20446;-82
2022/03/20 07:16:05;;;;;;;0.83;0.70;;;6.80;99.90;;;;;;4955689;29;20419;-83
2022/03/20 07:18:32;;;;;;;1.53;0.80;;;7.10;99.90;;;;;;4955760;29;20481;-83
2022/03/20 07:20:59;;;;;;;1.67;1.57;;;7.20;99.90;;;;;;4955813;29;20458;-82
2022/03/20 07:23:26;;;;;;;0.63;0.57;;;7.30;99.90;;;;;;4955644;29;20497;-82
2022/03/20 07:31:22;;;;;;;1.00;1.00;;;7.10;99.90;;;;;;4955485;29;20490;-83
2022/03/20 07:33:49;;;;;;;1.60;1.30;;;7.10;99.90;;;;;;4955201;29;20835;-83
2022/03/20 07:36:18;;;;;;;1.37;1.03;;;7.40;99.90;;;;;;4955611;29;20431;-83
2022/03/20 07:38:45;;;;;;;3.70;1.40;;;7.70;99.90;;;;;;4955489;29;20481;-83
2022/03/20 07:41:12;;;;;;;2.23;1.80;;;7.70;99.90;;;;;;4955519;29;20548;-83
2022/03/20 07:43:39;;;;;;;2.03;1.93;;;7.80;99.90;;;;;;4955122;29;20490;-83
2022/03/20 07:46:06;;;;;;;2.13;1.30;;;8.00;99.90;;;;;;4955506;29;20442;-83
2022/03/20 07:48:35;;;;;;;1.33;1.23;;;8.00;99.90;;;;;;4955140;29;20576;-83
2022/03/20 07:51:02;;;;;;;0.90;0.80;;;8.10;99.90;;;;;;4955391;29;20446;-83
2022/03/20 07:53:28;;;;;;;1.63;1.37;;;8.20;99.90;;;;;;4955101;29;20438;-83
2022/03/20 07:55:55;;;;;;;4.23;1.83;;;8.30;99.90;;;;;;4955296;29;20457;-82
2022/03/20 07:58:22;;;;;;;0.80;0.80;;;8.50;99.90;;;;;;4955235;29;20466;-83
2022/03/20 08:00:49;;;;;;;1.50;1.43;;;8.90;99.90;;;;;;4955315;29;20789;-83
2022/03/20 08:03:16;;;;;;;1.10;0.93;;;9.30;99.60;;;;;;4955252;29;20482;-83
2022/03/20 08:05:45;;;;;;;3.40;1.33;;;9.50;99.70;;;;;;4955277;29;20456;-83
2022/03/20 08:08:14;;;;;;;0.90;0.70;;;9.60;99.10;;;;;;4955081;29;20474;-83
2022/03/20 08:10:42;;;;;;;2.57;1.20;;;9.60;98.10;;;;;;4955233;29;20466;-83
2022/03/20 08:13:10;;;;;;;4.90;1.07;;;9.50;97.40;;;;;;4955223;29;20447;-83
2022/03/20 08:15:36;;;;;;;2.10;1.90;;;9.50;97.90;;;;;;4955104;29;20462;-83
2022/03/20 08:18:07;;;;;;;1.47;1.33;;;9.50;97.80;;;;;;4955526;28;20485;-83
2022/03/20 08:20:34;;;;;;;5.87;1.37;;;9.60;98.20;;;;;;4958749;29;20470;-83
2022/03/20 08:23:03;;;;;;;3.80;1.53;;;9.50;97.90;;;;;;4958730;29;21001;-83
2022/03/20 08:25:31;;;;;;;5.70;2.43;;;9.60;97.90;;;;;;4959006;29;20488;-83
2022/03/20 08:27:58;;;;;;;1.40;1.30;;;9.80;98.00;;;;;;4958808;29;20481;-83
2022/03/20 08:30:24;;;;;;;6.90;1.17;;;10.00;97.10;;;;;;4958756;29;20466;-82
2022/03/20 08:32:53;;;;;;;3.97;2.57;;;10.10;96.40;;;;;;4958793;29;20444;-83
2022/03/20 08:35:21;;;;;;;1.30;1.20;;;10.20;97.00;;;;;;4958477;29;20450;-83
2022/03/20 08:37:49;;;;;;;1.60;0.83;;;10.30;96.40;;;;;;4958629;29;20450;-83
2022/03/20 08:40:19;;;;;;;1.47;1.30;;;10.40;96.70;;;;;;4958691;29;20828;-83
2022/03/20 08:42:47;;;;;;;1.10;1.07;;;10.60;95.40;;;;;;4958588;29;20568;-83
2022/03/20 08:45:14;;;;;;;1.10;1.00;;;10.90;95.00;;;;;;4958674;29;20509;-83
2022/03/20 08:47:42;;;;;;;3.43;1.60;;;11.30;93.90;;;;;;4958516;29;20454;-83
2022/03/20 08:50:10;;;;;;;2.17;2.07;;;11.60;93.50;;;;;;4958139;29;20533;-83
2022/03/20 08:52:37;;;;;;;2.10;1.20;;;11.90;92.60;;;;;;4958554;29;20456;-83
2022/03/20 08:55:09;;;;;;;2.97;1.50;;;12.10;92.60;;;;;;4958445;29;20442;-83
2022/03/20 08:57:39;;;;;;;4.37;2.20;;;12.20;90.10;;;;;;4958381;29;20497;-83
2022/03/20 09:00:08;;;;;;;3.90;1.67;;;12.20;87.20;;;;;;4958357;29;20461;-83
2022/03/20 09:02:34;;;;;;;4.13;1.27;;;12.50;86.20;;;;;;4958034;29;20977;-83
2022/03/20 09:05:02;;;;;;;2.23;2.13;;;12.50;82.70;;;;;;4958203;29;20440;-83
2022/03/20 09:07:29;;;;;;;2.10;1.47;;;12.60;83.10;;;;;;4957903;29;20996;-83
2022/03/20 09:09:56;;;;;;;3.23;2.50;;;12.50;83.20;;;;;;4958405;29;20474;-83
2022/03/20 09:12:23;;;;;;;5.27;1.80;;;12.90;81.90;;;;;;4958138;29;20461;-83
2022/03/20 09:14:51;;;;;;;2.17;1.80;;;13.20;82.40;;;;;;4958091;29;20450;-83
2022/03/20 09:20:02;;;;;;;4.90;3.37;;;13.40;77.50;;;;;;4958093;29;20410;-83
2022/03/20 09:22:29;;;;;;;2.47;1.80;;;13.10;78.70;;;;;;4957826;29;20490;-83
2022/03/20 09:24:56;;;;;;;1.83;1.63;;;12.80;79.40;;;;;;4958123;29;20454;-84
2022/03/20 09:27:23;;;;;;;3.57;2.80;;;12.60;80.50;;;;;;4957839;29;20442;-83
2022/03/20 09:29:52;;;;;;;9.33;2.30;;;12.40;80.30;;;;;;4957775;28;20530;-83
2022/03/20 09:32:20;;;;;;;4.27;2.27;;;12.10;79.20;;;;;;4957689;29;20465;-83
2022/03/20 09:34:47;;;;;;;4.77;1.30;;;11.80;80.20;;;;;;4957698;29;20797;-83
2022/03/20 09:37:13;;;;;;;4.10;2.20;;;11.60;82.70;;;;;;4957732;29;20447;-83
2022/03/20 09:39:40;;;;;;;7.37;2.30;;;11.60;82.10;;;;;;4957575;29;20489;-83
2022/03/20 09:42:07;;;;;;;2.20;1.70;;;11.60;83.40;;;;;;4957250;29;20450;-83
2022/03/20 09:44:38;;;;;;;2.60;1.20;;;11.50;83.90;;;;;;4957693;29;20442;-83
2022/03/20 09:47:10;;;;;;;4.17;1.83;;;11.40;85.60;;;;;;4957555;29;20442;-83
2022/03/20 09:49:38;;;;;;;9.97;3.20;;;11.30;84.00;;;;;;4956989;29;20861;-83
2022/03/20 09:52:06;;;;;;;2.33;2.07;;;11.20;85.00;;;;;;4957399;29;20461;-83
2022/03/20 09:54:33;;;;;;;3.67;1.27;;;11.00;83.10;;;;;;4957386;29;20473;-82
2022/03/20 09:57:02;;;;;;;1.17;0.97;;;10.90;84.20;;;;;;4957387;29;20434;-83
2022/03/20 09:59:29;;;;;;;1.10;0.87;;;10.90;85.10;;;;;;4956964;29;20459;-83
2022/03/20 10:02:02;;;;;;;5.97;2.37;;;10.90;84.30;;;;;;4957277;29;20458;-84
2022/03/20 10:04:31;;;;;;;1.73;1.63;;;11.10;86.50;;;;;;4957173;29;20474;-83
2022/03/20 10:06:58;;;;;;;2.83;1.00;;;11.40;88.10;;;;;;4956949;29;20855;-83
2022/03/20 10:09:24;;;;;;;3.80;1.37;;;11.60;86.30;;;;;;4957120;29;20486;-83
2022/03/20 10:11:54;;;;;;;8.03;2.27;;;12.00;86.10;;;;;;4956889;29;20423;-83
2022/03/20 10:14:23;;;;;;;5.03;1.53;;;12.40;85.10;;;;;;4957179;29;20446;-83
2022/03/20 10:16:53;;;;;;;7.80;2.60;;;12.80;84.70;;;;;;4957004;29;20435;-83
2022/03/20 10:19:32;;;;;;;7.13;2.83;;;13.40;83.00;;;;;;4956928;29;20481;-83
2022/03/20 10:22:05;;;;;;;2.27;2.07;;;14.00;81.60;;;;;;4956883;29;20489;-83
2022/03/20 10:24:33;;;;;;;2.40;1.30;;;15.00;79.70;;;;;;4956806;29;20545;-83
2022/03/20 10:27:13;;;;;;;6.80;2.00;;;16.00;77.00;;;;;;4956504;29;20442;-83
2022/03/20 10:29:52;;;;;;;5.27;2.97;;;17.00;73.90;;;;;;4956655;29;20489;-83
2022/03/20 10:32:19;;;;;;;4.37;2.30;;;17.90;72.00;;;;;;4956724;29;20439;-83
2022/03/20 10:34:52;;;;;;;6.90;2.50;;;18.00;68.80;;;;;;4956639;29;20438;-83
2022/03/20 10:37:20;;;;;;;4.63;3.13;;;17.90;67.10;;;;;;4956682;29;20435;-83
2022/03/20 10:39:47;;;;;;;6.40;3.10;;;17.60;67.40;;;;;;4956202;29;20474;-83
2022/03/20 10:42:16;;;;;;;3.10;2.23;;;17.50;66.80;;;;;;4955997;28;20457;-83
2022/03/20 10:44:43;;;;;;;7.50;2.77;;;17.90;67.40;;;;;;4956389;29;20494;-83
2022/03/20 10:47:13;;;;;;;4.17;3.03;;;18.00;66.30;;;;;;4956368;29;20458;-83
2022/03/20 10:49:40;;;;;;;4.63;2.10;;;18.60;65.20;;;;;;4956046;29;20539;-84
2022/03/20 10:52:11;;;;;;;7.23;1.70;;;19.00;62.60;;;;;;4956291;29;20453;-83
2022/03/20 10:54:42;;;;;;;5.27;1.70;;;19.00;60.80;;;;;;4956302;29;20435;-84
2022/03/20 10:57:11;;;;;;;2.53;1.93;;;19.50;59.20;;;;;;4956233;29;20457;-84
2022/03/20 10:59:39;;;;;;;6.27;1.73;;;20.40;57.90;;;;;;4956145;29;20564;-83
2022/03/20 11:02:08;;;;;;;3.40;2.37;;;20.70;55.90;;;;;;4955839;29;20936;-83
2022/03/20 11:04:35;;;;;;;11.30;3.00;;;21.30;55.10;;;;;;4956048;29;20533;-83
2022/03/20 11:07:07;;;;;;;2.87;2.30;;;21.40;52.60;;;;;;4955940;29;20485;-83
2022/03/20 11:09:35;;;;;;;3.53;2.27;;;21.20;52.40;;;;;;4955991;29;20473;-83
2022/03/20 11:12:06;;;;;;;4.80;2.70;;;20.50;53.60;;;;;;4956665;29;20461;-83
2022/03/20 11:14:36;;;;;;;2.47;2.13;;;19.90;53.70;;;;;;4955946;29;20449;-83
2022/03/20 11:17:06;;;;;;;4.37;1.90;;;19.50;55.30;;;;;;4955962;29;20434;-83
2022/03/20 11:19:35;;;;;;;3.10;1.90;;;19.20;54.40;;;;;;4955821;29;20568;-83
2022/03/20 11:22:05;;;;;;;2.07;1.50;;;18.70;56.00;;;;;;4955844;29;20434;-84
2022/03/20 11:24:32;;;;;;;1.90;1.20;;;18.30;56.10;;;;;;4955634;29;20485;-83
2022/03/20 11:27:02;;;;;;;3.13;1.60;;;18.20;55.40;;;;;;4955661;29;20453;-83
2022/03/20 11:29:32;;;;;;;4.53;1.20;;;17.90;54.70;;;;;;4955571;29;20470;-83
2022/03/20 11:31:59;;;;;;;4.27;1.40;;;17.90;56.50;;;;;;4955368;29;20811;-83
2022/03/20 11:34:27;;;;;;;0.90;0.87;;;17.80;56.00;;;;;;4955287;29;20454;-83
2022/03/20 11:37:05;;;;;;;0.90;0.80;;;17.80;53.90;;;;;;4955469;29;20454;-83
2022/03/20 11:39:33;;;;;;;2.07;1.33;;;17.70;53.20;;;;;;4955108;29;21057;-83
2022/03/20 11:42:24;;;;;;;1.43;0.80;;;17.60;54.10;;;;;;4955453;29;20438;-83
2022/03/20 11:45:09;;;;;;;2.00;1.53;;;17.70;53.60;;;;;;4955314;29;20494;-83
2022/03/20 11:47:37;;;;;;;1.83;0.90;;;17.70;54.20;;;;;;4955341;29;20774;-83
2022/03/20 11:50:08;;;;;;;2.07;0.70;;;17.70;52.40;;;;;;4955244;29;20486;-83
2022/03/20 11:53:00;;;;;;;0.90;0.90;;;17.80;54.80;;;;;;4954701;28;20442;-83
2022/03/20 11:55:40;;;;;;;0.90;0.80;;;17.90;53.50;;;;;;4955037;29;20782;-83
2022/03/20 11:58:36;;;;;;;4.17;1.20;;;17.90;53.50;;;;;;4955190;29;20820;-83
2022/03/20 12:01:05;;;;;;;1.83;0.93;;;17.90;52.30;;;;;;4955226;29;20454;-83
2022/03/20 12:03:53;;;;;;;1.90;1.10;;;18.00;51.30;;;;;;4954979;29;20467;-83
2022/03/20 12:06:54;;;;;;;0.60;0.60;;;17.90;50.60;;;;;;4955234;29;20449;-83
2022/03/20 12:09:38;;;;;;;2.30;1.10;;;18.00;52.70;;;;;;4954764;29;20977;-83
2022/03/20 12:12:22;;;;;;;1.83;1.37;;;18.20;51.10;;;;;;4955180;29;20430;-83
2022/03/20 12:14:53;;;;;;;1.17;0.80;;;18.20;51.70;;;;;;4955172;29;20446;-83
2022/03/20 12:17:21;;;;;;;2.63;0.97;;;18.20;52.10;;;;;;4955213;29;20493;-83
2022/03/20 12:19:49;;;;;;;1.83;1.03;;;18.30;51.30;;;;;;4954807;29;20470;-83
2022/03/20 12:22:29;;;;;;;2.00;1.03;;;18.20;50.50;;;;;;4955169;29;20494;-83
2022/03/20 12:24:58;;;;;;;1.70;1.00;;;18.00;50.50;;;;;;4954654;29;20838;-83
2022/03/20 12:27:49;;;;;;;7.30;1.43;;;17.80;50.80;;;;;;4954750;29;20478;-83
2022/03/20 12:30:36;;;;;;;2.33;0.80;;;17.70;50.90;;;;;;4955070;29;20453;-83
2022/03/20 12:33:05;;;;;;;0.77;0.73;;;17.50;50.60;;;;;;4955030;29;20466;-83
2022/03/20 12:35:45;;;;;;;3.30;1.63;;;17.40;49.10;;;;;;4954682;29;20461;-83
2022/03/20 12:38:40;;;;;;;0.80;0.80;;;17.20;50.00;;;;;;4954582;29;20572;-83
2022/03/20 12:41:09;;;;;;;1.77;0.87;;;17.00;50.20;;;;;;4954852;29;20802;-83
2022/03/20 12:43:36;;;;;;;2.23;1.43;;;16.80;51.00;;;;;;4954766;29;20490;-83
2022/03/20 12:46:04;;;;;;;5.70;1.40;;;16.60;50.60;;;;;;4954874;29;20455;-83
2022/03/20 12:48:33;;;;;;;1.10;0.70;;;16.50;52.00;;;;;;4954220;29;20823;-83
2022/03/20 12:51:07;;;;;;;2.77;1.10;;;16.30;51.80;;;;;;4954857;29;20460;-83
2022/03/20 12:53:39;;;;;;;2.73;0.90;;;16.20;52.70;;;;;;4954807;29;20477;-83
2022/03/20 12:56:09;;;;;;;1.63;1.20;;;16.00;51.60;;;;;;4954812;29;20449;-83
2022/03/20 12:58:36;;;;;;;2.40;1.00;;;15.90;51.40;;;;;;4955209;29;20565;-83
2022/03/20 13:01:10;;;;;;;3.03;1.27;;;15.80;51.10;;;;;;4955267;29;20458;-83
2022/03/20 13:03:37;;;;;;;2.70;1.30;;;15.70;51.20;;;;;;4954626;28;20470;-83
2022/03/20 13:06:04;;;;;;;2.20;1.10;;;15.70;51.20;;;;;;4958125;29;20431;-84
2022/03/20 13:08:33;;;;;;;2.37;1.37;;;15.70;51.40;;;;;;4958137;29;20474;-85
2022/03/20 13:11:02;;;;;;;2.03;1.67;;;15.80;52.10;;;;;;4958105;29;20454;-84
2022/03/20 13:13:33;;;;;;;5.07;1.33;;;15.80;52.60;;;;;;4958115;29;20557;-84
2022/03/20 13:16:01;;;;;;;1.27;1.17;;;16.10;52.50;;;;;;4958798;29;20450;-85
2022/03/20 13:18:31;;;;;;;3.03;1.03;;;16.30;51.80;;;;;;4957646;29;21015;-84
2022/03/20 13:21:03;;;;;;;1.20;0.83;;;16.30;52.40;;;;;;4957770;29;20443;-84
2022/03/20 13:23:30;;;;;;;2.17;1.10;;;16.40;52.00;;;;;;4957871;29;20446;-85
2022/03/20 13:25:58;;;;;;;1.80;1.33;;;16.60;51.70;;;;;;4957613;29;20786;-84
2022/03/20 13:28:27;;;;;;;2.57;1.10;;;16.60;50.00;;;;;;4957813;29;20477;-84
2022/03/20 13:30:56;;;;;;;2.00;0.90;;;16.50;50.60;;;;;;4957669;29;20469;-84
2022/03/20 13:33:31;;;;;;;4.63;1.53;;;16.50;50.30;;;;;;4957723;29;20454;-84
2022/03/20 13:36:00;;;;;;;1.57;0.97;;;16.30;51.60;;;;;;4958449;29;20785;-84
2022/03/20 13:38:33;;;;;;;1.60;0.87;;;16.20;51.50;;;;;;4957653;29;20571;-84
2022/03/20 13:41:08;;;;;;;2.07;1.10;;;16.10;52.20;;;;;;4957654;29;20462;-84